createdAt,value
2018-12-16T04:48:54.294Z,1.80
2018-12-16T04:51:27.134Z,1.90
2018-12-16T04:54:00.135Z,1.80
2018-12-16T04:56:32.351Z,1.80
2018-12-16T04:59:04.700Z,1.70
2018-12-16T05:01:37.075Z,1.60
2018-12-16T05:04:09.401Z,1.50
2018-12-16T05:06:41.730Z,1.50
2018-12-16T05:09:13.841Z,1.50
2018-12-16T05:11:46.273Z,1.60
2018-12-16T05:14:18.470Z,1.60
2018-12-16T05:16:50.863Z,1.60
2018-12-16T05:19:23.740Z,1.60
2018-12-16T05:21:56.307Z,1.60
2018-12-16T05:24:29.377Z,1.50
2018-12-16T05:27:01.544Z,1.60
2018-12-16T05:29:33.677Z,1.50
2018-12-16T05:32:06.193Z,1.40
2018-12-16T05:34:39.332Z,1.50
2018-12-16T05:37:11.460Z,1.60
2018-12-16T05:39:43.593Z,1.70
2018-12-16T05:42:15.940Z,1.80
2018-12-16T05:44:48.961Z,1.80
2018-12-16T05:47:21.213Z,1.70
2018-12-16T05:49:53.883Z,1.70
2018-12-16T05:52:24.440Z,1.70
2018-12-16T05:54:56.706Z,1.80
2018-12-16T05:57:31.215Z,1.50
2018-12-16T06:00:04.672Z,1.60
2018-12-16T06:02:36.994Z,1.60
2018-12-16T06:05:09.136Z,1.80
2018-12-16T06:07:39.488Z,1.80
2018-12-16T06:10:11.907Z,1.80
2018-12-16T06:12:44.536Z,1.80
2018-12-16T06:15:17.558Z,1.70
2018-12-16T06:17:49.740Z,1.70
2018-12-16T06:20:22.152Z,1.70
2018-12-16T06:22:55.218Z,1.60
2018-12-16T06:25:27.549Z,1.70
2018-12-16T06:27:59.897Z,1.70
2018-12-16T06:30:39.698Z,1.70
2018-12-16T06:33:12.136Z,1.70
2018-12-16T06:35:44.514Z,1.80
2018-12-16T06:38:17.523Z,1.90
2018-12-16T06:40:50.028Z,1.70
2018-12-16T06:43:22.352Z,1.80
2018-12-16T06:45:54.509Z,1.80
2018-12-16T06:48:26.749Z,1.80
2018-12-16T06:50:56.994Z,1.70
2018-12-16T06:53:29.961Z,1.80
2018-12-16T06:56:06.627Z,1.70
2018-12-16T06:58:35.272Z,1.80
2018-12-16T07:01:08.124Z,1.80
2018-12-16T07:03:41.213Z,1.90
2018-12-16T07:06:14.332Z,1.80
2018-12-16T07:08:46.562Z,1.90
2018-12-16T07:11:19.617Z,1.80
2018-12-16T07:13:52.077Z,1.90
2018-12-16T07:16:24.228Z,1.70
2018-12-16T07:18:56.401Z,1.80
2018-12-16T07:21:28.559Z,2.00
2018-12-16T07:24:01.524Z,2.00
2018-12-16T07:26:34.502Z,2.10
2018-12-16T07:29:07.634Z,2.10
2018-12-16T07:31:41.633Z,2.00
2018-12-16T07:34:13.897Z,2.00
2018-12-16T07:36:46.395Z,2.00
2018-12-16T07:39:19.465Z,2.10
2018-12-16T07:41:52.486Z,2.10
2018-12-16T07:44:24.663Z,2.10
2018-12-16T07:46:57.555Z,2.20
2018-12-16T07:49:29.938Z,2.20
2018-12-16T07:52:00.170Z,2.10
2018-12-16T07:54:33.234Z,2.20
2018-12-16T07:57:05.946Z,2.20
2018-12-16T07:59:40.390Z,2.10
2018-12-16T08:02:13.137Z,2.20
2018-12-16T08:04:45.491Z,2.10
2018-12-16T08:07:17.045Z,2.20
2018-12-16T08:09:48.300Z,2.00
2018-12-16T08:12:20.675Z,2.20
2018-12-16T08:14:55.252Z,2.10
2018-12-16T08:17:27.769Z,2.20
2018-12-16T08:19:58.796Z,2.20
2018-12-16T08:22:31.963Z,2.10
2018-12-16T08:25:06.202Z,2.10
2018-12-16T08:27:37.675Z,2.00
2018-12-16T08:30:10.329Z,2.20
2018-12-16T08:32:43.839Z,2.20
2018-12-16T08:35:14.292Z,2.10
2018-12-16T08:37:47.469Z,2.10
2018-12-16T08:40:19.816Z,2.00
2018-12-16T08:42:52.037Z,2.20
2018-12-16T08:45:24.216Z,2.30
2018-12-16T08:47:56.742Z,2.20
2018-12-16T08:50:29.665Z,2.20
2018-12-16T08:52:59.964Z,2.30
2018-12-16T08:55:34.008Z,2.20
2018-12-16T08:58:06.939Z,2.30
2018-12-16T09:00:39.652Z,2.30
2018-12-16T09:03:12.548Z,2.10
2018-12-16T09:05:45.658Z,2.10
2018-12-16T09:08:18.112Z,2.10
2018-12-16T09:10:50.855Z,2.30
2018-12-16T09:13:24.064Z,2.40
2018-12-16T09:15:55.732Z,2.20
2018-12-16T09:18:28.274Z,2.20
2018-12-16T09:21:00.992Z,2.40
2018-12-16T09:23:33.784Z,2.40
2018-12-16T09:26:07.368Z,2.20
2018-12-16T09:28:41.312Z,2.30
2018-12-16T09:31:14.389Z,2.40
2018-12-16T09:33:47.762Z,2.30
2018-12-16T09:36:21.241Z,2.40
2018-12-16T09:38:53.645Z,2.50
2018-12-16T09:41:26.509Z,2.40
2018-12-16T09:43:59.264Z,2.60
2018-12-16T09:46:30.132Z,2.60
2018-12-16T09:49:06.272Z,2.70
2018-12-16T09:51:39.120Z,2.60
2018-12-16T09:54:11.899Z,2.50
2018-12-16T09:59:16.343Z,2.40
2018-12-16T10:01:51.099Z,2.40
2018-12-16T10:04:26.341Z,2.40
2018-12-16T10:06:57.214Z,2.60
2018-12-16T10:09:31.726Z,2.80
2018-12-16T10:12:16.874Z,2.80
2018-12-16T10:14:50.365Z,2.70
2018-12-16T10:17:27.999Z,2.80
2018-12-16T10:20:00.340Z,2.60
2018-12-16T10:22:39.684Z,2.70
2018-12-16T10:25:12.471Z,2.80
2018-12-16T10:27:44.924Z,2.80
2018-12-16T10:30:17.870Z,2.60
2018-12-16T10:32:54.010Z,2.80
2018-12-16T10:35:29.768Z,2.70
2018-12-16T10:38:07.444Z,2.70
2018-12-16T10:40:40.140Z,2.90
2018-12-16T10:43:15.302Z,3.00
2018-12-16T10:45:47.766Z,3.10
2018-12-16T10:48:24.016Z,3.00
2018-12-16T10:50:56.924Z,2.90
2018-12-16T10:53:31.331Z,2.70
2018-12-16T10:56:06.230Z,2.70
2018-12-16T10:58:41.228Z,2.80
2018-12-16T11:01:22.635Z,2.50
2018-12-16T11:03:58.223Z,2.30
2018-12-16T11:06:31.139Z,2.40
2018-12-16T11:09:05.953Z,2.40
2018-12-16T11:11:41.201Z,2.20
2018-12-16T11:14:14.185Z,1.90
2018-12-16T11:16:50.983Z,1.80
2018-12-16T11:19:23.883Z,2.00
2018-12-16T11:21:56.660Z,2.30
2018-12-16T11:24:29.328Z,2.50
2018-12-16T11:27:01.436Z,2.50
2018-12-16T11:29:33.551Z,2.50
2018-12-16T11:32:05.914Z,2.40
2018-12-16T11:34:38.596Z,1.90
2018-12-16T11:37:10.897Z,2.10
2018-12-16T11:39:46.083Z,2.40
2018-12-16T11:42:16.856Z,2.40
2018-12-16T11:44:47.193Z,2.50
2018-12-16T11:47:22.580Z,2.60
2018-12-16T11:49:55.154Z,2.60
2018-12-16T11:52:28.549Z,2.70
2018-12-16T11:55:01.055Z,2.30
2018-12-16T11:57:42.637Z,2.40
2018-12-16T12:00:30.299Z,2.30
2018-12-16T12:03:05.097Z,2.40
2018-12-16T12:05:47.951Z,2.50
2018-12-16T12:08:20.340Z,2.40
2018-12-16T12:10:52.609Z,2.30
2018-12-16T12:13:23.532Z,1.60
2018-12-16T12:15:58.975Z,1.60
2018-12-16T12:18:34.638Z,1.90
2018-12-16T12:21:07.715Z,2.10
2018-12-16T12:23:40.449Z,2.20
2018-12-16T12:29:12.657Z,1.90
2018-12-16T12:31:41.769Z,1.80
2018-12-16T12:34:11.007Z,1.70
2018-12-16T12:36:40.486Z,1.70
2018-12-16T12:39:10.697Z,1.70
2018-12-16T12:44:39.061Z,2.20
2018-12-16T12:47:15.772Z,2.40
2018-12-16T12:49:48.522Z,2.40
2018-12-16T12:52:23.259Z,2.30
2018-12-16T12:54:59.692Z,2.30
2018-12-16T12:57:32.383Z,2.60
2018-12-16T13:00:05.775Z,2.60
2018-12-16T13:05:29.105Z,2.60
2018-12-16T13:08:01.764Z,2.80
2018-12-16T13:10:35.736Z,3.00
2018-12-16T13:13:08.932Z,3.00
2018-12-16T13:18:41.823Z,2.90
2018-12-16T13:21:16.226Z,3.00
2018-12-16T13:23:49.197Z,3.00
2018-12-16T13:26:24.769Z,2.80
2018-12-16T13:28:56.144Z,2.90
2018-12-16T13:31:28.564Z,2.80
2018-12-16T13:34:01.677Z,2.70
2018-12-16T13:36:34.592Z,2.90
2018-12-16T13:39:07.639Z,2.70
2018-12-16T13:41:41.943Z,2.80
2018-12-16T13:44:14.629Z,3.10
2018-12-16T13:46:47.522Z,3.30
2018-12-16T13:49:19.751Z,3.10
2018-12-16T13:51:52.099Z,2.90
2018-12-16T13:54:30.685Z,3.10
2018-12-16T13:57:03.603Z,3.00
2018-12-16T13:59:36.235Z,3.00
2018-12-16T14:02:08.364Z,2.80
2018-12-16T14:04:40.642Z,3.20
2018-12-16T14:07:12.999Z,3.00
2018-12-16T14:09:45.187Z,3.20
2018-12-16T14:12:18.531Z,3.30
2018-12-16T14:14:52.464Z,2.90
2018-12-16T14:17:24.849Z,2.90
2018-12-16T14:20:01.603Z,2.80
2018-12-16T14:22:37.444Z,3.00
2018-12-16T14:25:09.098Z,3.10
2018-12-16T14:27:42.105Z,3.00
2018-12-16T14:30:14.001Z,2.80
2018-12-16T14:32:48.218Z,2.90
2018-12-16T14:35:23.132Z,2.70
2018-12-16T14:37:54.830Z,2.80
2018-12-16T14:40:31.541Z,2.90
2018-12-16T14:43:07.079Z,3.00
2018-12-16T14:45:43.928Z,3.00
2018-12-16T14:48:18.883Z,3.10
2018-12-16T14:50:52.167Z,3.20
2018-12-16T14:53:25.573Z,3.50
2018-12-16T14:55:59.075Z,3.50
2018-12-16T14:58:32.498Z,3.20
2018-12-16T15:01:05.551Z,2.70
2018-12-16T15:03:42.205Z,2.80
2018-12-16T15:06:13.341Z,2.80
2018-12-16T15:08:53.772Z,2.60
2018-12-16T15:11:27.991Z,2.40
2018-12-16T15:14:03.699Z,2.50
2018-12-16T15:16:47.533Z,2.80
2018-12-16T15:19:26.044Z,2.90
2018-12-16T15:24:59.332Z,3.00
2018-12-16T15:27:33.618Z,2.90
2018-12-16T15:30:05.856Z,3.00
2018-12-16T15:32:52.461Z,2.90
2018-12-16T15:35:24.324Z,3.00
2018-12-16T15:37:57.149Z,2.90
2018-12-16T15:40:31.900Z,2.80
2018-12-16T15:43:04.576Z,2.90
2018-12-16T15:45:38.282Z,2.60
2018-12-16T15:48:07.746Z,2.70
2018-12-16T15:50:43.488Z,2.70
2018-12-16T15:53:21.996Z,2.80
2018-12-16T15:55:53.130Z,2.90
2018-12-16T15:58:22.362Z,3.00
2018-12-16T16:00:51.684Z,2.80
2018-12-16T16:03:20.745Z,3.00
2018-12-16T16:05:49.943Z,3.00
2018-12-16T16:08:19.819Z,3.00
2018-12-16T16:10:52.834Z,3.00
2018-12-16T16:13:28.743Z,3.20
2018-12-16T16:18:48.541Z,3.20
2018-12-16T16:21:24.514Z,3.30
2018-12-16T16:24:02.879Z,3.40
2018-12-16T16:26:36.085Z,3.20
2018-12-16T16:29:11.472Z,3.30
2018-12-16T16:31:47.612Z,3.40
2018-12-16T16:34:23.104Z,3.30
2018-12-16T16:36:52.701Z,3.40
2018-12-16T16:39:27.400Z,3.50
2018-12-16T16:45:14.304Z,3.60
2018-12-16T16:47:49.678Z,3.50
2018-12-16T16:50:22.181Z,3.40
2018-12-16T16:53:05.472Z,3.30
2018-12-16T16:55:37.936Z,3.20
2018-12-16T16:58:10.592Z,3.30
2018-12-16T17:00:53.457Z,3.40
2018-12-16T17:03:35.202Z,3.50
2018-12-16T17:06:04.574Z,3.50
2018-12-16T17:08:43.479Z,3.50
2018-12-16T17:11:18.061Z,3.50
2018-12-16T17:13:53.822Z,3.60
2018-12-16T17:16:25.327Z,3.50
2018-12-16T17:18:55.963Z,3.40
2018-12-16T17:21:25.646Z,3.40
2018-12-16T17:23:55.454Z,3.50
2018-12-16T17:26:31.058Z,3.50
2018-12-16T17:29:05.582Z,3.50
2018-12-16T17:31:38.811Z,3.60
2018-12-16T17:34:10.354Z,3.50
2018-12-16T17:36:43.233Z,3.40
2018-12-16T17:39:18.366Z,3.40
2018-12-16T17:41:53.137Z,3.30
2018-12-16T17:44:25.907Z,3.10
2018-12-16T17:46:59.037Z,3.20
2018-12-16T17:49:32.436Z,3.40
2018-12-16T17:52:07.220Z,3.50
2018-12-16T17:54:39.491Z,3.40
2018-12-16T17:57:11.639Z,3.40
2018-12-16T17:59:46.215Z,3.10
2018-12-16T18:02:15.375Z,3.30
2018-12-16T18:04:44.474Z,3.50
2018-12-16T18:10:19.215Z,3.60
2018-12-16T18:12:53.702Z,3.40
2018-12-16T18:15:28.279Z,3.60
2018-12-16T18:18:01.422Z,3.60
2018-12-16T18:20:35.985Z,3.40
2018-12-16T18:23:09.039Z,3.10
2018-12-16T18:25:43.518Z,3.30
2018-12-16T18:28:14.286Z,3.50
2018-12-16T18:30:46.583Z,3.50
2018-12-16T18:33:19.126Z,3.60
2018-12-16T18:35:52.140Z,3.60
2018-12-16T18:38:25.079Z,3.60
2018-12-16T18:40:58.159Z,3.50
2018-12-16T18:43:31.184Z,3.40
2018-12-16T18:46:03.629Z,3.40
2018-12-16T18:48:36.752Z,3.30
2018-12-16T18:51:06.029Z,3.00
2018-12-16T18:53:35.152Z,3.30
2018-12-16T18:56:04.332Z,3.10
2018-12-16T18:58:33.457Z,3.00
2018-12-16T19:01:04.241Z,2.90
2018-12-16T19:03:34.215Z,2.60
2018-12-16T19:06:03.919Z,2.60
2018-12-16T19:08:33.004Z,2.80
2018-12-16T19:11:02.115Z,3.00
2018-12-16T19:13:31.406Z,2.90
2018-12-16T19:16:00.623Z,3.00
2018-12-16T19:18:30.030Z,2.50
2018-12-16T19:21:07.404Z,2.60
2018-12-16T19:23:41.318Z,2.60
2018-12-16T19:26:17.601Z,2.70
2018-12-16T19:28:50.862Z,2.70
2018-12-16T19:31:22.867Z,2.50
2018-12-16T19:33:54.813Z,2.70
2018-12-16T19:36:25.979Z,3.00
2018-12-16T19:38:56.838Z,3.00
2018-12-16T19:44:35.719Z,2.90
2018-12-16T19:47:08.326Z,2.80
2018-12-16T19:49:55.171Z,3.10
2018-12-16T19:52:28.591Z,3.10
2018-12-16T19:55:05.566Z,3.10
2018-12-16T19:57:39.032Z,3.00
2018-12-16T20:00:14.656Z,3.00
2018-12-16T20:02:50.819Z,3.00
2018-12-16T20:05:28.688Z,3.20
2018-12-16T20:08:03.102Z,3.10
2018-12-16T20:10:36.285Z,3.10
2018-12-16T20:16:05.872Z,3.10
2018-12-16T20:18:39.371Z,3.20
2018-12-16T20:21:08.845Z,3.00
2018-12-16T20:23:43.714Z,3.20
2018-12-16T20:26:19.865Z,3.20
2018-12-16T20:28:56.832Z,3.30
2018-12-16T20:31:26.231Z,3.30
2018-12-16T20:34:01.771Z,3.00
2018-12-16T20:36:37.494Z,3.10
2018-12-16T20:39:13.021Z,3.10
2018-12-16T20:44:53.885Z,3.40
2018-12-16T20:47:31.317Z,3.50
2018-12-16T20:50:02.031Z,3.50
2018-12-16T20:52:31.159Z,3.60
2018-12-16T20:55:01.399Z,3.60
2018-12-16T20:57:31.586Z,3.70
2018-12-16T21:00:00.964Z,3.70
2018-12-16T21:02:32.025Z,3.50
2018-12-16T21:05:19.830Z,3.70
2018-12-16T21:07:56.318Z,3.40
2018-12-16T21:10:27.494Z,3.30
2018-12-16T21:13:07.705Z,3.40
2018-12-16T21:15:49.417Z,3.60
2018-12-16T21:18:25.178Z,3.70
2018-12-16T21:20:54.360Z,3.80
2018-12-16T21:23:25.801Z,4.00
2018-12-16T21:26:01.482Z,3.90
2018-12-16T21:28:37.302Z,3.90
2018-12-16T21:31:14.742Z,3.90
2018-12-16T21:33:44.911Z,3.80
2018-12-16T21:36:14.279Z,3.90
2018-12-16T21:38:49.936Z,3.80
2018-12-16T21:41:22.479Z,3.70
2018-12-16T21:43:51.849Z,3.70
2018-12-16T21:46:33.889Z,3.70
2018-12-16T21:49:06.826Z,3.80
2018-12-16T21:54:33.051Z,3.90
